Time;durP1;ratioP1;P1;durP2;ratioP2;P2;SDS_P1;SDS_P2;PMS_P1;PMS_P2;Temp;Humidity;BMP_temperature;BMP_pressure;BME280_temperature;BME280_humidity;BME280_pressure;Samples;Min_cycle;Max_cycle;Signal;HPM_P1;HPM_P2
2022/02/24 00:00:55;;;;;;;27.60;13.98;;;;;;;4.21;90.37;143298.63;1775802;80;21059;-56
2022/02/24 00:03:23;;;;;;;24.67;11.90;;;;;;;4.19;90.30;143294.86;1756936;82;21032;-56
2022/02/24 00:05:51;;;;;;;28.47;14.35;;;;;;;4.16;90.38;143286.14;1758963;80;21517;-56
2022/02/24 00:08:18;;;;;;;27.95;14.83;;;;;;;4.17;90.40;143288.63;1756734;82;21703;-57
2022/02/24 00:10:44;;;;;;;27.00;13.75;;;;;;;4.20;90.59;143296.09;1761405;80;21036;-57
2022/02/24 00:13:11;;;;;;;24.52;13.05;;;;;;;4.22;90.59;143301.09;1758418;80;21044;-57
2022/02/24 00:15:39;;;;;;;20.72;12.13;;;;;;;4.23;90.58;143303.63;1762945;80;20988;-57
2022/02/24 00:18:06;;;;;;;24.55;12.47;;;;;;;4.25;90.49;143308.56;1787963;80;21487;-57
2022/02/24 00:20:32;;;;;;;21.93;12.28;;;;;;;4.23;90.47;143303.63;1778325;80;21086;-58
2022/02/24 00:22:59;;;;;;;19.05;11.57;;;;;;;4.23;90.57;143303.63;1756939;80;21107;-57
2022/02/24 00:25:27;;;;;;;21.48;11.45;;;;;;;4.19;90.43;143293.62;1757742;80;21007;-58
2022/02/24 00:27:53;;;;;;;25.25;11.35;;;;;;;4.14;90.74;143283.62;1766794;80;20972;-57
2022/02/24 00:30:21;;;;;;;21.60;11.93;;;;;;;4.16;90.78;143286.14;1785595;80;21031;-56
2022/02/24 00:32:47;;;;;;;20.27;11.78;;;;;;;4.20;90.99;143297.38;1788174;80;21007;-57
2022/02/24 00:35:16;;;;;;;19.50;11.30;;;;;;;4.25;91.00;143308.56;1787238;80;21525;-57
2022/02/24 00:37:43;;;;;;;21.27;12.23;;;;;;;4.30;90.96;143321.05;1788116;80;21493;-57
2022/02/24 00:40:12;;;;;;;27.17;13.80;;;;;;;4.33;90.73;143328.58;1785114;80;20972;-56
2022/02/24 00:42:39;;;;;;;21.95;11.73;;;;;;;4.34;90.71;143331.05;1757232;80;21454;-58
2022/02/24 00:45:07;;;;;;;27.27;12.33;;;;;;;4.30;90.67;143322.34;1757005;81;21062;-57
2022/02/24 00:47:33;;;;;;;23.35;12.43;;;;;;;4.26;90.80;143311.09;1757117;81;21030;-57
2022/02/24 00:50:00;;;;;;;23.27;12.25;;;;;;;4.21;90.85;143299.86;1757100;82;21069;-57
2022/02/24 00:52:26;;;;;;;23.05;12.47;;;;;;;4.19;91.08;143293.62;1786676;80;21062;-57
2022/02/24 00:54:54;;;;;;;27.05;13.13;;;;;;;4.22;91.20;143301.09;1787503;80;21544;-57
2022/02/24 00:57:20;;;;;;;22.93;13.50;;;;;;;4.22;91.12;143302.33;1788077;80;21007;-57
2022/02/24 00:59:46;;;;;;;25.27;13.48;;;;;;;4.25;91.27;143309.86;1774995;80;21013;-56
2022/02/24 01:02:13;;;;;;;26.25;13.93;;;;;;;4.28;91.29;143316.09;1782074;80;21047;-55
2022/02/24 01:04:42;;;;;;;27.15;14.10;;;;;;;4.30;91.28;143322.34;1787788;80;21063;-58
2022/02/24 01:07:09;;;;;;;24.45;13.38;;;;;;;4.32;91.29;143326.05;1787624;80;21459;-58
2022/02/24 01:09:35;;;;;;;26.62;13.83;;;;;;;4.32;91.28;143326.05;1788028;80;21118;-57
2022/02/24 01:12:03;;;;;;;30.00;15.55;;;;;;;4.28;90.93;143317.33;1766724;80;21497;-57
2022/02/24 01:14:30;;;;;;;24.67;13.65;;;;;;;4.23;91.21;143303.63;1757186;81;20998;-58
2022/02/24 01:16:58;;;;;;;30.00;13.68;;;;;;;4.22;91.47;143302.33;1756810;81;21030;-56
2022/02/24 01:19:25;;;;;;;30.37;14.63;;;;;;;4.27;91.72;143314.81;1757037;81;21054;-55
2022/02/24 01:21:51;;;;;;;27.52;14.13;;;;;;;4.32;91.52;143326.05;1756862;80;21024;-56
2022/02/24 01:24:19;;;;;;;21.87;13.53;;;;;;;4.34;91.60;143332.28;1786205;80;21016;-55
2022/02/24 01:26:46;;;;;;;27.98;14.53;;;;;;;4.39;91.45;143343.53;1788184;80;21020;-56
2022/02/24 01:29:12;;;;;;;26.07;13.43;;;;;;;4.40;91.37;143344.77;1768216;80;21013;-58
2022/02/24 01:31:39;;;;;;;23.30;12.80;;;;;;;4.40;91.25;143346.05;1756914;80;21006;-56
2022/02/24 01:34:07;;;;;;;19.75;12.80;;;;;;;4.37;91.28;143338.53;1756977;81;21100;-55
2022/02/24 01:36:33;;;;;;;21.48;13.13;;;;;;;4.39;91.17;143342.28;1756757;81;21041;-55
2022/02/24 01:39:00;;;;;;;23.15;13.32;;;;;;;4.34;91.15;143332.28;1757013;82;21025;-56
2022/02/24 01:41:26;;;;;;;21.17;12.93;;;;;;;4.30;91.28;143321.05;1765509;80;21535;-55
2022/02/24 01:43:53;;;;;;;25.55;13.50;;;;;;;4.27;91.30;143314.81;1788056;80;21075;-56
2022/02/24 01:46:20;;;;;;;21.70;13.10;;;;;;;4.25;91.34;143308.56;1787869;80;21446;-56
2022/02/24 01:48:46;;;;;;;18.55;11.88;;;;;;;4.23;91.63;143304.86;1787889;80;21027;-56
2022/02/24 01:51:14;;;;;;;20.23;12.85;;;;;;;4.29;91.83;143318.56;1787025;80;21024;-57
2022/02/24 01:53:40;;;;;;;24.92;13.38;;;;;;;4.32;91.78;143326.05;1788157;80;20996;-56
2022/02/24 01:56:07;;;;;;;22.02;12.80;;;;;;;4.39;91.87;143342.28;1787873;80;21098;-56
2022/02/24 01:58:35;;;;;;;23.98;13.70;;;;;;;4.40;91.75;143346.05;1788258;80;21036;-58
2022/02/24 02:01:03;;;;;;;22.67;13.62;;;;;;;4.43;91.66;143353.53;1781157;80;21027;-59
2022/02/24 02:03:32;;;;;;;22.67;13.85;;;;;;;4.42;91.53;143349.77;1761246;80;21029;-57
2022/02/24 02:05:59;;;;;;;20.72;12.75;;;;;;;4.44;91.56;143354.77;1762594;80;21043;-58
2022/02/24 02:08:27;;;;;;;27.82;14.33;;;;;;;4.45;91.46;143358.53;1762570;81;21032;-58
2022/02/24 02:10:53;;;;;;;24.20;13.03;;;;;;;4.44;91.35;143356.00;1762447;81;21043;-60
2022/02/24 02:13:20;;;;;;;24.30;14.30;;;;;;;4.45;91.45;143357.25;1762446;81;21075;-57
2022/02/24 02:15:47;;;;;;;25.65;14.30;;;;;;;4.45;91.41;143358.53;1762555;81;21515;-59
2022/02/24 02:18:14;;;;;;;23.40;13.58;;;;;;;4.45;91.43;143358.53;1762338;81;21028;-56
2022/02/24 02:20:41;;;;;;;24.60;14.58;;;;;;;4.42;91.41;143351.00;1762399;80;21060;-56
2022/02/24 02:23:07;;;;;;;25.35;13.48;;;;;;;4.38;91.50;143341.05;1762415;81;20985;-56
2022/02/24 02:25:35;;;;;;;20.97;14.18;;;;;;;4.36;91.59;143336.05;1762316;81;21071;-60
2022/02/24 02:28:03;;;;;;;25.68;14.78;;;;;;;4.33;91.66;143328.58;1762479;81;21012;-55
2022/02/24 02:30:31;;;;;;;26.27;14.95;;;;;;;4.32;91.79;143326.05;1763087;80;21039;-55
2022/02/24 02:32:58;;;;;;;24.87;14.20;;;;;;;4.35;91.87;143333.53;1768985;80;21019;-55
2022/02/24 02:35:26;;;;;;;26.77;15.38;;;;;;;4.42;91.97;143351.00;1766237;80;21063;-56
2022/02/24 02:37:53;;;;;;;25.62;14.50;;;;;;;4.50;91.80;143371.00;1762415;81;21529;-57
2022/02/24 02:40:19;;;;;;;28.47;16.10;;;;;;;4.54;91.64;143380.95;1762483;80;21145;-57
2022/02/24 02:42:46;;;;;;;23.35;14.63;;;;;;;4.59;91.69;143390.97;1762428;81;21023;-57
2022/02/24 02:45:14;;;;;;;28.23;15.25;;;;;;;4.64;91.49;143404.69;1762294;81;21043;-57
2022/02/24 02:47:40;;;;;;;23.42;14.07;;;;;;;4.66;91.40;143409.69;1762205;81;21560;-57
2022/02/24 02:50:08;;;;;;;24.45;13.50;;;;;;;4.67;91.22;143410.92;1762504;81;21027;-56
2022/02/24 02:52:35;;;;;;;26.20;13.58;;;;;;;4.70;91.11;143418.41;1792688;80;21070;-56
2022/02/24 02:55:09;;;;;;;26.15;14.65;;;;;;;4.66;91.13;143408.44;1766046;80;21027;-56
2022/02/24 02:57:37;;;;;;;28.00;15.18;;;;;;;4.65;91.05;143407.16;1762588;81;21031;-57
2022/02/24 03:00:08;;;;;;;24.75;14.90;;;;;;;4.66;91.02;143408.44;1762475;81;21035;-57
2022/02/24 03:02:35;;;;;;;28.73;14.40;;;;;;;4.69;90.99;143415.92;1762475;81;21507;-58
2022/02/24 03:05:01;;;;;;;28.05;14.63;;;;;;;4.74;90.99;143429.64;1754858;81;21168;-58
2022/02/24 03:07:28;;;;;;;24.27;14.38;;;;;;;4.76;90.69;143433.41;1749227;81;21068;-58
2022/02/24 03:09:54;;;;;;;22.25;13.22;;;;;;;4.68;90.70;143413.41;1748910;82;21024;-57
2022/02/24 03:12:21;;;;;;;20.80;12.40;;;;;;;4.56;90.70;143385.97;1748895;82;21572;-58
2022/02/24 03:14:48;;;;;;;22.30;12.13;;;;;;;4.37;90.87;143338.53;1748871;82;21015;-57
2022/02/24 03:17:16;;;;;;;19.00;12.25;;;;;;;4.17;91.58;143288.63;1749094;82;20977;-58
2022/02/24 03:19:43;;;;;;;20.88;13.30;;;;;;;4.02;92.05;143252.44;1749093;82;21060;-57
2022/02/24 03:22:12;;;;;;;22.37;12.58;;;;;;;3.96;92.63;143237.48;1748756;81;21116;-58
2022/02/24 03:24:40;;;;;;;19.70;12.03;;;;;;;3.91;93.25;143226.25;1748893;81;21031;-57
2022/02/24 03:27:07;;;;;;;18.35;12.00;;;;;;;3.82;93.52;143203.84;1748882;81;21020;-57
2022/02/24 03:29:34;;;;;;;19.57;11.30;;;;;;;3.81;94.30;143201.31;1749023;81;21010;-57
2022/02/24 03:32:02;;;;;;;19.05;12.85;;;;;;;3.82;94.50;143205.08;1765378;81;21036;-56
2022/02/24 03:34:31;;;;;;;24.27;12.55;;;;;;;3.77;94.76;143191.36;1766748;81;21061;-57
2022/02/24 03:36:58;;;;;;;18.23;11.80;;;;;;;3.75;95.16;143186.36;1749220;81;21067;-57
2022/02/24 03:39:25;;;;;;;18.50;12.23;;;;;;;3.78;95.61;143193.84;1748679;82;21036;-56
2022/02/24 03:41:51;;;;;;;18.60;11.68;;;;;;;3.88;95.89;143220.02;1748935;82;21036;-55
2022/02/24 03:44:19;;;;;;;18.10;12.20;;;;;;;3.96;95.64;143237.48;1748624;81;21012;-55
2022/02/24 03:46:45;;;;;;;20.50;12.30;;;;;;;3.95;95.48;143235.02;1759731;81;21012;-54
2022/02/24 03:49:12;;;;;;;18.65;11.97;;;;;;;4.01;95.68;143251.20;1750837;81;21061;-54
2022/02/24 03:51:40;;;;;;;21.65;12.80;;;;;;;4.01;95.41;143251.20;1749867;81;21561;-54
2022/02/24 03:54:07;;;;;;;20.12;13.05;;;;;;;4.04;95.61;143257.44;1752809;81;21035;-57
2022/02/24 03:56:33;;;;;;;20.23;13.00;;;;;;;4.12;95.67;143278.67;1762839;81;21073;-51
2022/02/24 03:59:00;;;;;;;19.60;12.55;;;;;;;4.21;95.62;143298.63;1749918;81;21047;-51
2022/02/24 04:01:27;;;;;;;19.25;13.28;;;;;;;4.27;95.45;143314.81;1764164;81;21009;-58
2022/02/24 04:03:53;;;;;;;27.22;15.15;;;;;;;4.30;95.18;143321.05;1750229;80;21031;-51
2022/02/24 04:06:20;;;;;;;25.45;14.60;;;;;;;4.32;95.07;143326.05;1753356;81;21013;-57
2022/02/24 04:08:48;;;;;;;22.35;13.90;;;;;;;4.34;94.95;143331.05;1746694;81;21035;-57
2022/02/24 04:11:14;;;;;;;25.52;14.13;;;;;;;4.40;95.03;143346.05;1748854;80;20977;-53
2022/02/24 04:13:41;;;;;;;25.30;14.47;;;;;;;4.46;94.88;143361.00;1751182;81;21085;-54
2022/02/24 04:16:08;;;;;;;21.75;13.60;;;;;;;4.49;94.66;143368.48;1753284;81;21130;-54
2022/02/24 04:18:34;;;;;;;21.23;13.38;;;;;;;4.49;94.43;143368.48;1749487;81;21052;-55
2022/02/24 04:21:01;;;;;;;22.67;13.30;;;;;;;4.49;94.27;143368.48;1758015;81;21511;-54
2022/02/24 04:23:27;;;;;;;20.32;12.37;;;;;;;4.47;93.99;143363.48;1749003;82;21035;-54
2022/02/24 04:25:54;;;;;;;23.75;13.93;;;;;;;4.46;93.95;143359.77;1751457;81;21079;-53
2022/02/24 04:28:20;;;;;;;24.25;14.58;;;;;;;4.42;93.82;143351.00;1765639;81;21072;-53
2022/02/24 04:30:47;;;;;;;23.73;14.68;;;;;;;4.41;93.97;143348.53;1761532;80;21012;-54
2022/02/24 04:33:14;;;;;;;22.50;13.98;;;;;;;4.48;94.13;143366.00;1757490;81;21491;-54
2022/02/24 04:35:41;;;;;;;23.80;14.75;;;;;;;4.55;93.92;143382.20;1757409;81;21589;-56
2022/02/24 04:38:07;;;;;;;28.17;15.13;;;;;;;4.59;93.69;143390.97;1753111;81;21008;-54
2022/02/24 04:40:35;;;;;;;26.37;15.48;;;;;;;4.60;93.49;143393.44;1763791;81;21095;-57
2022/02/24 04:43:02;;;;;;;23.07;14.13;;;;;;;4.64;93.46;143403.44;1757890;81;21000;-54
2022/02/24 04:45:29;;;;;;;23.70;14.47;;;;;;;4.62;93.22;143399.69;1749041;82;21078;-55
2022/02/24 04:47:57;;;;;;;20.82;12.03;;;;;;;4.50;92.68;143371.00;1748926;81;21087;-52
2022/02/24 04:50:23;;;;;;;20.35;12.25;;;;;;;4.43;92.93;143353.53;1757273;81;21012;-53
2022/02/24 04:52:50;;;;;;;18.65;11.10;;;;;;;4.38;92.86;143339.81;1750665;81;21032;-52
2022/02/24 04:55:16;;;;;;;19.57;11.55;;;;;;;4.34;92.73;143332.28;1748978;81;20997;-52
2022/02/24 04:57:43;;;;;;;17.85;11.40;;;;;;;4.22;92.70;143301.09;1748868;81;21015;-57
2022/02/24 05:00:11;;;;;;;19.82;12.03;;;;;;;4.20;93.05;143296.09;1748917;81;21001;-60
2022/02/24 05:02:38;;;;;;;17.65;11.48;;;;;;;4.20;93.26;143296.09;1751569;81;21138;-59
2022/02/24 05:05:05;;;;;;;16.87;11.12;;;;;;;4.29;93.53;143319.81;1755935;80;21015;-60
2022/02/24 05:07:32;;;;;;;18.92;11.57;;;;;;;4.38;93.28;143341.05;1761450;80;20988;-54
2022/02/24 05:10:00;;;;;;;16.17;10.60;;;;;;;4.48;93.18;143366.00;1754553;82;21094;-55
2022/02/24 05:12:28;;;;;;;21.05;12.58;;;;;;;4.56;92.96;143384.72;1754870;82;21123;-54
2022/02/24 05:14:55;;;;;;;21.33;12.18;;;;;;;4.67;92.75;143410.92;1757087;82;21043;-54
2022/02/24 05:17:22;;;;;;;19.57;12.28;;;;;;;4.67;92.54;143410.92;1756786;82;21028;-55
2022/02/24 05:19:48;;;;;;;17.60;11.80;;;;;;;4.67;92.40;143412.16;1757105;82;21005;-55
2022/02/24 05:22:15;;;;;;;15.28;10.35;;;;;;;4.59;92.21;143390.97;1756760;82;21043;-54
2022/02/24 05:24:41;;;;;;;21.00;10.95;;;;;;;4.50;92.06;143371.00;1757023;82;21047;-54
2022/02/24 05:27:08;;;;;;;15.45;10.55;;;;;;;4.38;92.05;143341.05;1756860;82;21043;-54
2022/02/24 05:29:34;;;;;;;17.15;9.63;;;;;;;4.29;92.21;143318.56;1757168;82;21084;-54
2022/02/24 05:32:01;;;;;;;16.60;10.53;;;;;;;4.10;92.38;143273.67;1756936;82;21033;-54
2022/02/24 05:34:29;;;;;;;22.15;12.05;;;;;;;4.00;92.84;143248.72;1757075;82;21067;-54
2022/02/24 05:36:56;;;;;;;18.52;12.00;;;;;;;3.95;93.32;143236.25;1756991;82;21007;-54
2022/02/24 05:39:23;;;;;;;18.67;11.20;;;;;;;3.95;93.70;143235.02;1757230;81;21075;-55
2022/02/24 05:41:49;;;;;;;17.98;11.55;;;;;;;4.03;93.99;143256.20;1757052;82;21028;-54
2022/02/24 05:44:18;;;;;;;15.95;10.93;;;;;;;4.10;93.87;143273.67;1757030;82;20997;-55
2022/02/24 05:46:45;;;;;;;17.57;11.63;;;;;;;4.21;93.92;143298.63;1756856;82;21043;-54
2022/02/24 05:49:15;;;;;;;15.72;11.08;;;;;;;4.20;93.54;143297.38;1756785;82;21007;-54
2022/02/24 05:51:42;;;;;;;15.80;10.88;;;;;;;4.09;93.49;143269.91;1756992;82;21542;-54
2022/02/24 05:54:08;;;;;;;20.70;11.48;;;;;;;3.94;93.89;143233.72;1757802;80;21039;-54
2022/02/24 05:56:35;;;;;;;20.88;12.88;;;;;;;3.81;94.44;143201.31;1756941;82;21546;-54
2022/02/24 05:59:03;;;;;;;18.15;12.05;;;;;;;3.70;95.27;143176.38;1757051;80;21039;-54
2022/02/24 06:01:29;;;;;;;22.02;14.10;;;;;;;3.67;95.82;143168.91;1756893;82;21024;-55
2022/02/24 06:03:56;;;;;;;21.57;13.88;;;;;;;3.63;96.20;143157.66;1758627;80;21092;-55
2022/02/24 06:06:23;;;;;;;23.32;13.75;;;;;;;3.61;96.42;143153.95;1750732;82;21059;-55
2022/02/24 06:08:51;;;;;;;21.55;13.30;;;;;;;3.70;97.04;143176.38;1753104;81;21012;-54
2022/02/24 06:11:17;;;;;;;22.60;13.98;;;;;;;3.76;97.09;143190.08;1763483;81;21016;-54
2022/02/24 06:13:46;;;;;;;17.75;13.43;;;;;;;3.67;97.10;143168.91;1771349;80;21574;-54
2022/02/24 06:16:12;;;;;;;23.77;14.47;;;;;;;3.62;97.35;143156.44;1738014;82;21021;-54
2022/02/24 06:18:40;;;;;;;25.12;14.80;;;;;;;3.59;97.64;143148.95;1758032;80;21008;-54
2022/02/24 06:21:07;;;;;;;23.62;14.53;;;;;;;3.61;97.83;143153.95;1749841;81;21048;-54
2022/02/24 06:23:33;;;;;;;21.95;13.45;;;;;;;3.55;97.78;143137.72;1749191;81;21501;-54
2022/02/24 06:26:00;;;;;;;22.62;13.30;;;;;;;3.50;98.06;143125.25;1779281;80;21067;-54
2022/02/24 06:28:26;;;;;;;19.87;13.45;;;;;;;3.49;98.28;143124.02;1712649;84;21033;-54
2022/02/24 06:30:53;;;;;;;26.65;15.35;;;;;;;3.53;98.46;143133.97;1747363;82;21079;-54
2022/02/24 06:33:21;;;;;;;24.30;15.75;;;;;;;3.54;98.56;143135.25;1690876;84;21546;-55
2022/02/24 06:35:47;;;;;;;24.63;14.30;;;;;;;3.58;98.64;143146.44;1755018;80;21111;-54
2022/02/24 06:38:14;;;;;;;22.32;15.30;;;;;;;3.65;98.71;143162.66;1749768;81;20976;-54
2022/02/24 06:40:41;;;;;;;22.52;14.38;;;;;;;3.76;98.64;143190.08;1748929;81;21533;-53
2022/02/24 06:43:07;;;;;;;23.40;15.60;;;;;;;3.83;98.37;143206.31;1749056;82;21060;-54
2022/02/24 06:45:34;;;;;;;23.30;14.73;;;;;;;3.88;98.31;143218.78;1748973;82;21029;-54
2022/02/24 06:48:01;;;;;;;21.48;13.85;;;;;;;3.94;98.11;143233.72;1755706;81;20992;-54
2022/02/24 06:50:27;;;;;;;18.85;14.03;;;;;;;3.98;97.69;143243.72;1757970;81;21044;-53
2022/02/24 06:52:54;;;;;;;23.67;14.53;;;;;;;3.90;97.65;143223.78;1749219;82;21028;-54
2022/02/24 06:55:21;;;;;;;22.77;15.68;;;;;;;3.88;97.51;143218.78;1771628;81;21067;-54
2022/02/24 06:57:53;;;;;;;21.35;15.48;;;;;;;3.84;97.35;143210.06;1749138;81;21032;-54
2022/02/24 07:00:23;;;;;;;22.52;15.03;;;;;;;3.81;97.61;143201.31;1749180;81;21044;-54
2022/02/24 07:02:49;;;;;;;21.68;15.03;;;;;;;3.90;97.71;143223.78;1691122;84;20995;-54
2022/02/24 07:05:16;;;;;;;23.12;15.05;;;;;;;3.93;97.56;143231.25;1748906;81;20990;-54
2022/02/24 07:07:43;;;;;;;25.10;17.37;;;;;;;3.94;97.47;143232.48;1750786;81;21083;-53
2022/02/24 07:10:12;;;;;;;26.17;15.90;;;;;;;3.98;97.44;143242.48;1749298;81;21495;-57
2022/02/24 07:12:43;;;;;;;25.75;16.42;;;;;;;4.06;97.37;143263.67;1761560;81;21018;-54
2022/02/24 07:15:11;;;;;;;28.12;15.78;;;;;;;4.11;97.02;143276.14;1749084;82;21070;-54
2022/02/24 07:17:44;;;;;;;26.77;16.93;;;;;;;4.19;97.01;143293.62;1749643;81;21079;-53
2022/02/24 07:20:16;;;;;;;28.85;17.35;;;;;;;4.20;96.65;143296.09;1750505;81;21563;-54
2022/02/24 07:22:44;;;;;;;31.27;17.50;;;;;;;4.22;96.37;143301.09;1749065;81;21055;-54
2022/02/24 07:25:14;;;;;;;25.95;17.80;;;;;;;4.20;96.30;143296.09;1750735;81;21039;-54
2022/02/24 07:27:42;;;;;;;32.88;18.05;;;;;;;4.17;96.37;143289.86;1769518;81;21024;-54
2022/02/24 07:30:11;;;;;;;26.10;16.02;;;;;;;4.16;96.70;143286.14;1753570;81;21043;-54
2022/02/24 07:32:38;;;;;;;23.02;14.75;;;;;;;4.17;96.49;143288.63;1765758;81;21478;-54
2022/02/24 07:35:06;;;;;;;21.50;13.93;;;;;;;4.10;96.50;143272.44;1750214;81;21530;-54
2022/02/24 07:37:34;;;;;;;24.43;13.20;;;;;;;4.04;96.61;143257.44;1748918;82;20992;-55
2022/02/24 07:40:03;;;;;;;20.17;12.50;;;;;;;4.05;96.63;143261.19;1757582;81;21090;-54
2022/02/24 07:42:31;;;;;;;17.73;11.60;;;;;;;3.98;96.41;143242.48;1756289;81;21126;-55
2022/02/24 07:44:57;;;;;;;18.27;12.47;;;;;;;3.94;96.58;143233.72;1748664;81;21032;-55
2022/02/24 07:47:24;;;;;;;18.23;13.13;;;;;;;3.98;96.95;143243.72;1754187;80;21059;-53
2022/02/24 07:49:51;;;;;;;19.10;13.28;;;;;;;4.08;97.15;143267.44;1764350;81;21157;-54
2022/02/24 07:52:17;;;;;;;18.60;12.88;;;;;;;4.17;97.18;143289.86;1750621;81;21022;-53
2022/02/24 07:54:45;;;;;;;19.25;13.00;;;;;;;4.24;96.86;143306.09;1704118;83;21005;-53
2022/02/24 07:57:11;;;;;;;17.70;11.88;;;;;;;4.22;96.44;143301.09;1754185;80;21062;-54
2022/02/24 07:59:38;;;;;;;18.05;12.53;;;;;;;4.17;96.46;143289.86;1762298;81;21074;-54
2022/02/24 08:02:05;;;;;;;16.00;12.23;;;;;;;4.21;96.59;143299.86;1752945;81;21075;-54
2022/02/24 08:04:32;;;;;;;13.78;9.98;;;;;;;4.27;96.76;143313.58;1749455;81;20997;-54
2022/02/24 08:06:58;;;;;;;13.40;8.33;;;;;;;4.33;96.14;143329.81;1755158;81;21079;-54
2022/02/24 08:09:25;;;;;;;13.10;8.48;;;;;;;4.24;95.39;143306.09;1745806;81;21567;-55
2022/02/24 08:14:37;;;;;;;14.90;10.15;;;;;;;4.21;95.44;143299.86;1772788;80;20996;-56
2022/02/24 08:17:06;;;;;;;14.85;10.15;;;;;;;4.18;95.24;143291.14;1761469;81;21068;-56
2022/02/24 08:19:34;;;;;;;16.97;11.33;;;;;;;4.19;95.34;143293.62;1758780;81;21032;-56
2022/02/24 08:22:02;;;;;;;14.53;9.78;;;;;;;4.26;95.57;143311.09;1680113;84;21037;-56
2022/02/24 08:24:33;;;;;;;15.53;10.35;;;;;;;4.32;95.42;143327.28;1746427;81;20993;-56
2022/02/24 08:27:00;;;;;;;16.12;9.88;;;;;;;4.30;95.32;143321.05;1751393;81;21048;-56
2022/02/24 08:29:26;;;;;;;17.70;10.53;;;;;;;4.28;95.33;143316.09;1751930;81;21012;-57
2022/02/24 08:31:53;;;;;;;12.85;10.00;;;;;;;4.31;95.61;143323.58;1746867;81;21033;-56
2022/02/24 08:34:19;;;;;;;18.62;11.33;;;;;;;4.47;95.87;143363.48;1751083;80;21510;-56
2022/02/24 08:36:46;;;;;;;15.32;11.43;;;;;;;4.71;95.32;143420.92;1761539;81;21039;-56
2022/02/24 08:39:12;;;;;;;14.83;9.98;;;;;;;4.83;94.51;143450.84;1754364;81;21028;-57
2022/02/24 08:41:41;;;;;;;15.70;10.70;;;;;;;4.91;93.28;143470.84;1743654;80;21450;-56
2022/02/24 08:44:07;;;;;;;14.13;10.35;;;;;;;4.91;93.10;143469.56;1756181;81;21028;-55
2022/02/24 08:46:34;;;;;;;13.30;9.80;;;;;;;5.04;92.65;143502.06;1759726;81;21032;-55
2022/02/24 08:49:01;;;;;;;15.60;10.00;;;;;;;5.18;92.02;143537.00;1745483;81;21066;-57
2022/02/24 08:51:27;;;;;;;14.05;9.65;;;;;;;5.23;91.22;143548.23;1745558;81;21032;-60
2022/02/24 08:53:53;;;;;;;15.00;10.82;;;;;;;5.27;90.62;143558.25;1750270;80;21534;-58
2022/02/24 08:56:20;;;;;;;15.53;10.85;;;;;;;5.31;90.07;143568.20;1762087;81;21023;-65
2022/02/24 08:58:46;;;;;;;15.03;10.45;;;;;;;5.36;89.93;143579.45;1749120;81;21049;-57
2022/02/24 09:01:13;;;;;;;16.65;10.75;;;;;;;5.43;89.42;143596.95;1741496;81;21028;-58
2022/02/24 09:03:40;;;;;;;14.87;11.78;;;;;;;5.52;89.12;143618.16;1743510;81;21542;-58
2022/02/24 09:06:06;;;;;;;17.20;11.03;;;;;;;5.54;89.09;143623.16;1743016;81;21098;-59
2022/02/24 09:08:33;;;;;;;16.87;11.43;;;;;;;5.66;89.46;143653.16;1743329;81;21004;-58
2022/02/24 09:10:59;;;;;;;16.05;12.05;;;;;;;5.84;88.68;143696.88;1767194;81;21569;-58
2022/02/24 09:13:27;;;;;;;16.75;11.10;;;;;;;5.86;87.72;143703.13;1756173;81;21025;-58
2022/02/24 09:15:53;;;;;;;14.13;10.82;;;;;;;5.88;87.85;143708.13;1750548;81;21055;-59
2022/02/24 09:18:20;;;;;;;16.93;12.05;;;;;;;5.86;87.28;143701.88;1749328;81;20996;-59
2022/02/24 09:20:46;;;;;;;14.45;10.78;;;;;;;5.79;87.28;143685.63;1748644;81;21024;-59
2022/02/24 09:23:13;;;;;;;13.85;9.65;;;;;;;5.77;87.45;143679.38;1754606;81;21016;-59
2022/02/24 09:25:41;;;;;;;15.05;10.58;;;;;;;5.85;87.43;143699.34;1749728;81;21117;-58
2022/02/24 09:28:07;;;;;;;15.85;10.48;;;;;;;5.92;86.88;143715.61;1739928;81;21517;-58
2022/02/24 09:30:35;;;;;;;14.45;9.83;;;;;;;5.90;86.16;143710.59;1762520;81;21484;-58
2022/02/24 09:33:01;;;;;;;14.38;9.58;;;;;;;5.82;85.92;143693.11;1742980;81;21069;-60
2022/02/24 09:35:28;;;;;;;12.93;9.05;;;;;;;5.70;85.37;143663.16;1743147;81;21091;-58
2022/02/24 09:37:54;;;;;;;15.25;9.83;;;;;;;5.52;85.07;143619.44;1744331;81;20981;-57
2022/02/24 09:40:22;;;;;;;14.38;9.90;;;;;;;5.38;85.63;143585.70;1754483;81;21545;-62
2022/02/24 09:42:49;;;;;;;16.05;11.05;;;;;;;5.31;85.99;143568.20;1760609;80;21511;-63
2022/02/24 09:45:16;;;;;;;13.70;9.95;;;;;;;5.22;86.12;143547.00;1759972;81;21036;-62
2022/02/24 09:47:44;;;;;;;14.98;9.98;;;;;;;5.08;86.33;143512.02;1761156;80;21032;-62
2022/02/24 09:50:11;;;;;;;14.28;10.55;;;;;;;5.08;86.93;143510.78;1772355;80;21135;-63
2022/02/24 09:52:38;;;;;;;14.85;10.48;;;;;;;5.17;87.50;143533.27;1759142;80;21090;-63
2022/02/24 09:55:05;;;;;;;14.70;10.10;;;;;;;5.26;87.56;143555.72;1743476;81;21098;-55
2022/02/24 09:57:32;;;;;;;15.48;11.03;;;;;;;5.30;87.26;143564.48;1752690;81;21058;-57
2022/02/24 09:59:58;;;;;;;16.70;10.85;;;;;;;5.18;87.41;143537.00;1752079;81;21005;-57
2022/02/24 10:02:28;;;;;;;18.27;11.63;;;;;;;5.18;87.67;143537.00;1750608;81;21599;-58
2022/02/24 10:05:08;;;;;;;15.90;11.55;;;;;;;5.14;87.85;143525.75;1743049;81;21083;-59
2022/02/24 10:07:39;;;;;;;16.15;11.33;;;;;;;5.18;87.99;143535.75;1730946;82;21164;-61
2022/02/24 10:10:31;;;;;;;17.48;11.73;;;;;;;5.23;87.94;143549.47;1747462;82;21513;-57
2022/02/24 10:13:08;;;;;;;15.50;11.88;;;;;;;5.24;87.95;143550.77;1754271;82;21011;-61
2022/02/24 10:15:42;;;;;;;14.10;9.83;;;;;;;5.11;87.72;143519.50;1745724;82;21148;-62
2022/02/24 10:18:16;;;;;;;13.70;9.25;;;;;;;5.02;87.86;143495.81;1737331;81;21057;-61
2022/02/24 10:20:52;;;;;;;14.83;9.35;;;;;;;4.93;87.67;143475.81;1748253;82;21023;-62
2022/02/24 10:23:32;;;;;;;16.37;10.93;;;;;;;4.85;87.78;143454.61;1751306;81;21039;-61
2022/02/24 10:26:09;;;;;;;13.58;9.23;;;;;;;4.85;88.11;143454.61;1754104;82;21035;-61
2022/02/24 10:28:48;;;;;;;11.00;6.95;;;;;;;4.94;87.58;143478.33;1734866;82;21033;-59
2022/02/24 10:31:24;;;;;;;12.07;8.28;;;;;;;4.87;86.23;143460.84;1735383;82;21004;-61
2022/02/24 10:34:08;;;;;;;12.82;9.05;;;;;;;4.88;86.69;143463.33;1751505;81;21004;-59
2022/02/24 10:36:37;;;;;;;12.65;7.67;;;;;;;4.92;86.61;143473.33;1748320;82;21195;-61
2022/02/24 10:39:13;;;;;;;11.20;7.40;;;;;;;4.97;85.93;143485.81;1752056;81;21016;-58
2022/02/24 10:41:44;;;;;;;12.20;7.25;;;;;;;4.99;85.23;143489.58;1753382;82;21071;-60
2022/02/24 10:44:22;;;;;;;11.95;7.70;;;;;;;5.03;84.99;143498.30;1747254;81;21016;-60
2022/02/24 10:47:10;;;;;;;11.83;7.62;;;;;;;4.99;84.78;143490.81;1743426;82;21079;-60
2022/02/24 10:49:40;;;;;;;10.03;7.03;;;;;;;5.03;84.77;143498.30;1728220;82;21051;-59
2022/02/24 10:52:22;;;;;;;10.40;7.05;;;;;;;5.00;84.56;143493.30;1748339;82;21565;-60
2022/02/24 10:55:03;;;;;;;9.60;6.43;;;;;;;5.03;84.02;143498.30;1753537;82;21083;-58
2022/02/24 10:57:31;;;;;;;12.93;8.13;;;;;;;5.05;83.71;143503.30;1731182;82;21063;-58
2022/02/24 10:59:59;;;;;;;11.60;7.75;;;;;;;5.09;83.94;143514.55;1732470;81;21101;-58
2022/02/24 11:02:29;;;;;;;11.33;7.20;;;;;;;5.16;83.51;143530.75;1739364;81;21082;-60
2022/02/24 11:04:56;;;;;;;12.93;7.92;;;;;;;5.29;83.54;143561.97;1751367;82;21530;-59
2022/02/24 11:07:24;;;;;;;9.88;8.00;;;;;;;5.38;83.12;143585.70;1751946;80;21052;-60
2022/02/24 11:09:55;;;;;;;9.60;7.03;;;;;;;5.48;83.35;143608.19;1743530;81;21090;-60
2022/02/24 11:12:28;;;;;;;11.18;7.90;;;;;;;5.56;82.63;143628.17;1746966;80;21091;-61
2022/02/24 11:14:52;;;;;;;11.50;8.00;;;;;;;5.57;82.43;143630.66;1763440;80;21099;-60
2022/02/24 11:17:21;;;;;;;11.03;6.72;;;;;;;5.62;82.51;143643.14;1740164;82;21425;-58
2022/02/24 11:19:48;;;;;;;9.60;6.87;;;;;;;5.60;81.75;143639.42;1740218;82;21073;-59
2022/02/24 11:22:15;;;;;;;11.10;7.62;;;;;;;5.63;81.66;143645.66;1741610;82;21087;-60
2022/02/24 11:24:43;;;;;;;10.58;7.62;;;;;;;5.58;81.17;143634.42;1741782;82;21040;-60